sensor_id;sensor_type;location;lat;lon;timestamp;temperature;humidity
56861;DHT22;42744;51.094;3.490;2022-12-15T00:01:39;-5.00;99.90
56861;DHT22;42744;51.094;3.490;2022-12-15T00:04:25;-5.10;99.90
56861;DHT22;42744;51.094;3.490;2022-12-15T00:07:10;-5.10;99.90
56861;DHT22;42744;51.094;3.490;2022-12-15T00:09:55;-5.10;99.90
56861;DHT22;42744;51.094;3.490;2022-12-15T00:12:40;-5.10;99.90
56861;DHT22;42744;51.094;3.490;2022-12-15T00:15:25;-5.20;99.90
56861;DHT22;42744;51.094;3.490;2022-12-15T00:18:10;-5.20;99.90
56861;DHT22;42744;51.094;3.490;2022-12-15T00:20:59;-5.20;99.90
56861;DHT22;42744;51.094;3.490;2022-12-15T00:23:44;-5.20;99.90
56861;DHT22;42744;51.094;3.490;2022-12-15T00:26:29;-5.30;99.90
56861;DHT22;42744;51.094;3.490;2022-12-15T00:29:13;-5.30;99.90
56861;DHT22;42744;51.094;3.490;2022-12-15T00:31:59;-5.30;99.90
56861;DHT22;42744;51.094;3.490;2022-12-15T00:34:43;-5.30;99.90
56861;DHT22;42744;51.094;3.490;2022-12-15T00:37:32;-5.30;99.90
56861;DHT22;42744;51.094;3.490;2022-12-15T00:40:16;-5.30;99.90
56861;DHT22;42744;51.094;3.490;2022-12-15T00:42:43;-5.30;99.90
56861;DHT22;42744;51.094;3.490;2022-12-15T00:45:11;-5.30;99.90
56861;DHT22;42744;51.094;3.490;2022-12-15T00:47:37;-5.30;99.90
56861;DHT22;42744;51.094;3.490;2022-12-15T00:50:04;-5.30;99.90
56861;DHT22;42744;51.094;3.490;2022-12-15T00:52:49;-5.30;99.90
56861;DHT22;42744;51.094;3.490;2022-12-15T00:55:36;-5.40;99.90
56861;DHT22;42744;51.094;3.490;2022-12-15T00:58:21;-5.40;99.90
56861;DHT22;42744;51.094;3.490;2022-12-15T01:01:08;-5.40;99.90
56861;DHT22;42744;51.094;3.490;2022-12-15T01:03:53;-5.40;99.90
56861;DHT22;42744;51.094;3.490;2022-12-15T01:06:38;-5.40;99.90
56861;DHT22;42744;51.094;3.490;2022-12-15T01:09:23;-5.40;99.90
56861;DHT22;42744;51.094;3.490;2022-12-15T01:12:08;-5.40;99.90
56861;DHT22;42744;51.094;3.490;2022-12-15T01:14:53;-5.40;99.90
56861;DHT22;42744;51.094;3.490;2022-12-15T01:17:39;-5.40;99.90
56861;DHT22;42744;51.094;3.490;2022-12-15T01:20:24;-5.40;99.90
56861;DHT22;42744;51.094;3.490;2022-12-15T01:22:54;-5.40;99.90
56861;DHT22;42744;51.094;3.490;2022-12-15T01:25:24;-5.40;99.90
56861;DHT22;42744;51.094;3.490;2022-12-15T01:27:50;-5.40;99.90
56861;DHT22;42744;51.094;3.490;2022-12-15T01:30:23;-5.40;99.90
56861;DHT22;42744;51.094;3.490;2022-12-15T01:32:51;-5.30;99.90
56861;DHT22;42744;51.094;3.490;2022-12-15T01:35:19;-5.40;99.90
56861;DHT22;42744;51.094;3.490;2022-12-15T01:37:45;-5.40;99.90
56861;DHT22;42744;51.094;3.490;2022-12-15T01:40:14;-5.40;99.90
56861;DHT22;42744;51.094;3.490;2022-12-15T01:43:00;-5.40;99.90
56861;DHT22;42744;51.094;3.490;2022-12-15T01:45:48;-5.50;99.90
56861;DHT22;42744;51.094;3.490;2022-12-15T01:48:27;-5.50;99.90
56861;DHT22;42744;51.094;3.490;2022-12-15T01:51:06;-5.50;99.90
56861;DHT22;42744;51.094;3.490;2022-12-15T01:53:39;-5.50;99.90
56861;DHT22;42744;51.094;3.490;2022-12-15T01:56:08;-5.50;99.90
56861;DHT22;42744;51.094;3.490;2022-12-15T01:58:36;-5.60;99.90
56861;DHT22;42744;51.094;3.490;2022-12-15T02:01:09;-5.60;99.90
56861;DHT22;42744;51.094;3.490;2022-12-15T02:03:37;-5.60;99.90
56861;DHT22;42744;51.094;3.490;2022-12-15T02:06:03;-5.60;99.90
56861;DHT22;42744;51.094;3.490;2022-12-15T02:08:30;-5.60;99.90
56861;DHT22;42744;51.094;3.490;2022-12-15T02:21:45;-5.70;99.90
56861;DHT22;42744;51.094;3.490;2022-12-15T02:27:12;-5.70;99.90
56861;DHT22;42744;51.094;3.490;2022-12-15T02:30:04;-5.70;99.90
56861;DHT22;42744;51.094;3.490;2022-12-15T02:33:07;-5.70;99.90
56861;DHT22;42744;51.094;3.490;2022-12-15T02:38:33;-5.70;99.90
56861;DHT22;42744;51.094;3.490;2022-12-15T02:41:01;-5.70;99.90
56861;DHT22;42744;51.094;3.490;2022-12-15T02:43:29;-5.70;99.90
56861;DHT22;42744;51.094;3.490;2022-12-15T03:00:00;-5.90;99.90
56861;DHT22;42744;51.094;3.490;2022-12-15T03:02:30;-5.90;99.90
56861;DHT22;42744;51.094;3.490;2022-12-15T03:04:57;-5.90;99.90
56861;DHT22;42744;51.094;3.490;2022-12-15T03:07:24;-5.90;99.90
56861;DHT22;42744;51.094;3.490;2022-12-15T03:09:57;-5.90;99.90
56861;DHT22;42744;51.094;3.490;2022-12-15T03:12:24;-5.90;99.90
56861;DHT22;42744;51.094;3.490;2022-12-15T03:14:50;-6.00;99.90
56861;DHT22;42744;51.094;3.490;2022-12-15T03:17:16;-5.90;99.90
56861;DHT22;42744;51.094;3.490;2022-12-15T03:19:43;-5.90;99.90
56861;DHT22;42744;51.094;3.490;2022-12-15T03:22:08;-6.00;99.90
56861;DHT22;42744;51.094;3.490;2022-12-15T03:24:34;-6.00;99.90
56861;DHT22;42744;51.094;3.490;2022-12-15T03:27:02;-5.90;99.90
56861;DHT22;42744;51.094;3.490;2022-12-15T03:29:28;-5.90;99.90
56861;DHT22;42744;51.094;3.490;2022-12-15T03:31:54;-5.90;99.90
56861;DHT22;42744;51.094;3.490;2022-12-15T03:34:20;-5.90;99.90
56861;DHT22;42744;51.094;3.490;2022-12-15T03:36:46;-5.90;99.90
56861;DHT22;42744;51.094;3.490;2022-12-15T03:39:12;-5.90;99.90
56861;DHT22;42744;51.094;3.490;2022-12-15T03:41:38;-6.00;99.90
56861;DHT22;42744;51.094;3.490;2022-12-15T03:44:06;-6.00;99.90
56861;DHT22;42744;51.094;3.490;2022-12-15T03:46:32;-6.10;99.90
56861;DHT22;42744;51.094;3.490;2022-12-15T03:48:58;-6.10;99.90
56861;DHT22;42744;51.094;3.490;2022-12-15T03:51:24;-6.10;99.90
56861;DHT22;42744;51.094;3.490;2022-12-15T03:53:51;-6.10;99.90
56861;DHT22;42744;51.094;3.490;2022-12-15T03:56:18;-6.10;99.90
56861;DHT22;42744;51.094;3.490;2022-12-15T03:58:44;-6.10;99.90
56861;DHT22;42744;51.094;3.490;2022-12-15T04:01:37;-6.10;99.90
56861;DHT22;42744;51.094;3.490;2022-12-15T04:04:03;-6.10;99.90
56861;DHT22;42744;51.094;3.490;2022-12-15T04:06:30;-6.10;99.90
56861;DHT22;42744;51.094;3.490;2022-12-15T04:08:56;-6.10;99.90
56861;DHT22;42744;51.094;3.490;2022-12-15T04:11:22;-6.10;99.90
56861;DHT22;42744;51.094;3.490;2022-12-15T04:13:48;-6.10;99.90
56861;DHT22;42744;51.094;3.490;2022-12-15T04:16:14;-6.00;99.90
56861;DHT22;42744;51.094;3.490;2022-12-15T04:18:40;-6.00;99.90
56861;DHT22;42744;51.094;3.490;2022-12-15T04:21:06;-6.00;99.90
56861;DHT22;42744;51.094;3.490;2022-12-15T04:23:32;-6.10;99.90
56861;DHT22;42744;51.094;3.490;2022-12-15T04:25:58;-6.10;99.90
56861;DHT22;42744;51.094;3.490;2022-12-15T04:28:43;-6.10;99.90
56861;DHT22;42744;51.094;3.490;2022-12-15T04:31:30;-6.20;99.90
56861;DHT22;42744;51.094;3.490;2022-12-15T04:34:18;-6.10;99.90
56861;DHT22;42744;51.094;3.490;2022-12-15T04:37:06;-6.10;99.90
56861;DHT22;42744;51.094;3.490;2022-12-15T04:39:52;-6.10;99.90
56861;DHT22;42744;51.094;3.490;2022-12-15T04:42:44;-6.10;99.90
56861;DHT22;42744;51.094;3.490;2022-12-15T04:45:29;-6.00;99.90
56861;DHT22;42744;51.094;3.490;2022-12-15T04:48:14;-6.00;99.90
56861;DHT22;42744;51.094;3.490;2022-12-15T04:50:58;-6.00;99.90
56861;DHT22;42744;51.094;3.490;2022-12-15T04:53:44;-6.00;99.90
56861;DHT22;42744;51.094;3.490;2022-12-15T04:56:30;-6.00;99.90
56861;DHT22;42744;51.094;3.490;2022-12-15T04:59:15;-6.10;99.90
56861;DHT22;42744;51.094;3.490;2022-12-15T05:02:00;-6.10;99.90
56861;DHT22;42744;51.094;3.490;2022-12-15T05:04:44;-6.10;99.90
56861;DHT22;42744;51.094;3.490;2022-12-15T05:07:29;-6.10;99.90
56861;DHT22;42744;51.094;3.490;2022-12-15T05:10:14;-6.10;99.90
56861;DHT22;42744;51.094;3.490;2022-12-15T05:13:06;-6.10;99.90
56861;DHT22;42744;51.094;3.490;2022-12-15T05:15:51;-6.10;99.90
56861;DHT22;42744;51.094;3.490;2022-12-15T05:18:35;-6.10;99.90
56861;DHT22;42744;51.094;3.490;2022-12-15T05:21:20;-6.10;99.90
56861;DHT22;42744;51.094;3.490;2022-12-15T05:24:05;-6.10;99.90
56861;DHT22;42744;51.094;3.490;2022-12-15T05:26:50;-6.10;99.90
56861;DHT22;42744;51.094;3.490;2022-12-15T05:29:34;-6.20;99.90
56861;DHT22;42744;51.094;3.490;2022-12-15T05:32:19;-6.20;99.90
56861;DHT22;42744;51.094;3.490;2022-12-15T05:34:45;-6.20;99.90
56861;DHT22;42744;51.094;3.490;2022-12-15T05:37:11;-6.20;99.90
56861;DHT22;42744;51.094;3.490;2022-12-15T05:39:37;-6.20;99.90
56861;DHT22;42744;51.094;3.490;2022-12-15T05:42:03;-6.20;99.90
56861;DHT22;42744;51.094;3.490;2022-12-15T05:44:29;-6.20;99.90
56861;DHT22;42744;51.094;3.490;2022-12-15T05:46:55;-6.20;99.90
56861;DHT22;42744;51.094;3.490;2022-12-15T05:49:21;-6.20;99.90
56861;DHT22;42744;51.094;3.490;2022-12-15T05:51:50;-6.10;99.90
56861;DHT22;42744;51.094;3.490;2022-12-15T05:54:18;-6.10;99.90
56861;DHT22;42744;51.094;3.490;2022-12-15T05:56:45;-6.00;99.90
56861;DHT22;42744;51.094;3.490;2022-12-15T05:59:12;-6.00;99.90
56861;DHT22;42744;51.094;3.490;2022-12-15T06:01:40;-6.00;99.90
56861;DHT22;42744;51.094;3.490;2022-12-15T06:04:06;-6.00;99.90
56861;DHT22;42744;51.094;3.490;2022-12-15T06:06:32;-6.00;99.90
56861;DHT22;42744;51.094;3.490;2022-12-15T06:09:01;-6.00;99.90
56861;DHT22;42744;51.094;3.490;2022-12-15T06:11:28;-6.00;99.90
56861;DHT22;42744;51.094;3.490;2022-12-15T06:13:55;-6.10;99.90
56861;DHT22;42744;51.094;3.490;2022-12-15T06:16:23;-6.10;99.90
56861;DHT22;42744;51.094;3.490;2022-12-15T06:18:53;-6.10;99.90
56861;DHT22;42744;51.094;3.490;2022-12-15T06:21:21;-6.20;99.90
56861;DHT22;42744;51.094;3.490;2022-12-15T06:23:51;-6.20;99.90
56861;DHT22;42744;51.094;3.490;2022-12-15T06:28:51;-6.20;99.90
56861;DHT22;42744;51.094;3.490;2022-12-15T06:31:18;-6.20;99.90
56861;DHT22;42744;51.094;3.490;2022-12-15T06:33:50;-6.20;99.90
56861;DHT22;42744;51.094;3.490;2022-12-15T06:36:17;-6.20;99.90
56861;DHT22;42744;51.094;3.490;2022-12-15T06:38:44;-6.20;99.90
56861;DHT22;42744;51.094;3.490;2022-12-15T06:41:13;-6.20;99.90
56861;DHT22;42744;51.094;3.490;2022-12-15T06:43:40;-6.20;99.90
56861;DHT22;42744;51.094;3.490;2022-12-15T06:46:06;-6.10;99.90
56861;DHT22;42744;51.094;3.490;2022-12-15T06:48:33;-6.10;99.90
56861;DHT22;42744;51.094;3.490;2022-12-15T06:51:04;-6.10;99.90
56861;DHT22;42744;51.094;3.490;2022-12-15T06:53:31;-6.10;99.90
56861;DHT22;42744;51.094;3.490;2022-12-15T06:56:01;-6.10;99.90
56861;DHT22;42744;51.094;3.490;2022-12-15T06:58:28;-6.10;99.90
56861;DHT22;42744;51.094;3.490;2022-12-15T07:00:55;-6.10;99.90
56861;DHT22;42744;51.094;3.490;2022-12-15T07:03:21;-6.10;99.90
56861;DHT22;42744;51.094;3.490;2022-12-15T07:05:47;-6.10;99.90
56861;DHT22;42744;51.094;3.490;2022-12-15T07:08:15;-6.10;99.90
56861;DHT22;42744;51.094;3.490;2022-12-15T07:10:43;-6.10;99.90
56861;DHT22;42744;51.094;3.490;2022-12-15T07:13:13;-6.10;99.90
56861;DHT22;42744;51.094;3.490;2022-12-15T07:15:39;-6.10;99.90
56861;DHT22;42744;51.094;3.490;2022-12-15T07:18:06;-6.10;99.90
56861;DHT22;42744;51.094;3.490;2022-12-15T07:20:32;-6.10;99.90
56861;DHT22;42744;51.094;3.490;2022-12-15T07:22:58;-6.10;99.90
56861;DHT22;42744;51.094;3.490;2022-12-15T07:25:25;-6.10;99.90
56861;DHT22;42744;51.094;3.490;2022-12-15T07:27:51;-6.10;99.90
56861;DHT22;42744;51.094;3.490;2022-12-15T07:30:17;-6.10;99.90
56861;DHT22;42744;51.094;3.490;2022-12-15T07:32:44;-6.20;99.90
56861;DHT22;42744;51.094;3.490;2022-12-15T07:35:11;-6.20;99.90
56861;DHT22;42744;51.094;3.490;2022-12-15T07:37:37;-6.10;99.90
56861;DHT22;42744;51.094;3.490;2022-12-15T07:40:04;-6.10;99.90
56861;DHT22;42744;51.094;3.490;2022-12-15T07:42:30;-6.10;99.90
56861;DHT22;42744;51.094;3.490;2022-12-15T07:44:56;-6.10;99.90
56861;DHT22;42744;51.094;3.490;2022-12-15T07:47:23;-6.10;99.90
56861;DHT22;42744;51.094;3.490;2022-12-15T07:49:49;-6.20;99.90
56861;DHT22;42744;51.094;3.490;2022-12-15T07:52:16;-6.20;99.90
56861;DHT22;42744;51.094;3.490;2022-12-15T07:54:42;-6.20;99.90
56861;DHT22;42744;51.094;3.490;2022-12-15T07:57:08;-6.10;99.90
56861;DHT22;42744;51.094;3.490;2022-12-15T07:59:34;-6.10;99.90
56861;DHT22;42744;51.094;3.490;2022-12-15T08:02:01;-6.10;99.90
56861;DHT22;42744;51.094;3.490;2022-12-15T08:04:29;-6.10;99.90
56861;DHT22;42744;51.094;3.490;2022-12-15T08:06:56;-6.10;99.90
56861;DHT22;42744;51.094;3.490;2022-12-15T08:09:23;-6.00;99.90
56861;DHT22;42744;51.094;3.490;2022-12-15T08:11:50;-6.00;99.90
56861;DHT22;42744;51.094;3.490;2022-12-15T08:14:16;-5.90;99.90
56861;DHT22;42744;51.094;3.490;2022-12-15T08:16:42;-5.90;99.90
56861;DHT22;42744;51.094;3.490;2022-12-15T08:19:11;-5.90;99.90
56861;DHT22;42744;51.094;3.490;2022-12-15T08:21:41;-5.90;99.90
56861;DHT22;42744;51.094;3.490;2022-12-15T08:24:08;-5.90;99.90
56861;DHT22;42744;51.094;3.490;2022-12-15T08:26:36;-5.80;99.90
56861;DHT22;42744;51.094;3.490;2022-12-15T08:29:07;-5.80;99.90
56861;DHT22;42744;51.094;3.490;2022-12-15T08:31:33;-5.80;99.90
56861;DHT22;42744;51.094;3.490;2022-12-15T08:34:00;-5.70;99.90
56861;DHT22;42744;51.094;3.490;2022-12-15T08:36:27;-5.70;99.90
56861;DHT22;42744;51.094;3.490;2022-12-15T08:38:55;-5.60;99.90
56861;DHT22;42744;51.094;3.490;2022-12-15T08:41:24;-5.50;99.90
56861;DHT22;42744;51.094;3.490;2022-12-15T08:43:52;-5.40;99.90
56861;DHT22;42744;51.094;3.490;2022-12-15T08:46:21;-5.30;99.90
56861;DHT22;42744;51.094;3.490;2022-12-15T08:48:48;-5.20;99.90
56861;DHT22;42744;51.094;3.490;2022-12-15T08:51:15;-5.10;99.90
56861;DHT22;42744;51.094;3.490;2022-12-15T08:53:41;-5.00;99.90
56861;DHT22;42744;51.094;3.490;2022-12-15T08:56:13;-4.80;99.90
56861;DHT22;42744;51.094;3.490;2022-12-15T08:58:40;-4.70;99.90
56861;DHT22;42744;51.094;3.490;2022-12-15T09:01:13;-4.60;99.90
56861;DHT22;42744;51.094;3.490;2022-12-15T09:03:39;-4.50;99.90
56861;DHT22;42744;51.094;3.490;2022-12-15T09:06:17;-4.50;99.90
56861;DHT22;42744;51.094;3.490;2022-12-15T09:08:44;-4.40;99.90
56861;DHT22;42744;51.094;3.490;2022-12-15T09:11:11;-4.20;99.90
56861;DHT22;42744;51.094;3.490;2022-12-15T09:13:37;-4.10;99.90
56861;DHT22;42744;51.094;3.490;2022-12-15T09:16:07;-3.90;99.90
56861;DHT22;42744;51.094;3.490;2022-12-15T09:18:33;-3.80;99.90
56861;DHT22;42744;51.094;3.490;2022-12-15T09:21:01;-3.70;99.90
56861;DHT22;42744;51.094;3.490;2022-12-15T09:23:28;-3.60;99.90
56861;DHT22;42744;51.094;3.490;2022-12-15T09:26:23;-3.40;99.90
56861;DHT22;42744;51.094;3.490;2022-12-15T09:28:50;-3.40;99.90
56861;DHT22;42744;51.094;3.490;2022-12-15T09:31:23;-3.30;99.90
56861;DHT22;42744;51.094;3.490;2022-12-15T09:33:51;-3.20;99.90
56861;DHT22;42744;51.094;3.490;2022-12-15T09:36:18;-3.10;99.90
56861;DHT22;42744;51.094;3.490;2022-12-15T09:38:44;-2.90;99.90
56861;DHT22;42744;51.094;3.490;2022-12-15T09:49:21;-2.70;99.90
56861;DHT22;42744;51.094;3.490;2022-12-15T09:51:57;-2.60;99.90
56861;DHT22;42744;51.094;3.490;2022-12-15T09:54:30;-2.60;99.90
56861;DHT22;42744;51.094;3.490;2022-12-15T09:56:59;-2.60;99.90
56861;DHT22;42744;51.094;3.490;2022-12-15T10:08:02;-2.20;99.90
56861;DHT22;42744;51.094;3.490;2022-12-15T10:10:38;-2.20;99.90
56861;DHT22;42744;51.094;3.490;2022-12-15T10:13:41;-2.10;99.90
56861;DHT22;42744;51.094;3.490;2022-12-15T10:16:32;-1.80;99.90
56861;DHT22;42744;51.094;3.490;2022-12-15T10:19:06;-1.40;99.90
56861;DHT22;42744;51.094;3.490;2022-12-15T10:21:34;-1.00;99.90
56861;DHT22;42744;51.094;3.490;2022-12-15T10:24:28;-0.70;99.90
56861;DHT22;42744;51.094;3.490;2022-12-15T10:27:19;-0.40;99.90
56861;DHT22;42744;51.094;3.490;2022-12-15T10:29:59;-0.20;99.90
56861;DHT22;42744;51.094;3.490;2022-12-15T10:35:21;0.40;99.90
56861;DHT22;42744;51.094;3.490;2022-12-15T10:37:48;0.60;99.90
56861;DHT22;42744;51.094;3.490;2022-12-15T10:40:19;0.80;99.90
56861;DHT22;42744;51.094;3.490;2022-12-15T10:42:51;1.00;99.90
56861;DHT22;42744;51.094;3.490;2022-12-15T10:45:34;1.20;99.90
56861;DHT22;42744;51.094;3.490;2022-12-15T10:48:01;1.40;99.90
56861;DHT22;42744;51.094;3.490;2022-12-15T10:50:33;1.60;99.90
56861;DHT22;42744;51.094;3.490;2022-12-15T10:53:07;1.70;99.90
56861;DHT22;42744;51.094;3.490;2022-12-15T10:55:39;1.70;99.90
56861;DHT22;42744;51.094;3.490;2022-12-15T10:58:18;1.50;99.90
56861;DHT22;42744;51.094;3.490;2022-12-15T11:00:45;1.40;99.90
56861;DHT22;42744;51.094;3.490;2022-12-15T11:03:22;1.60;99.90
56861;DHT22;42744;51.094;3.490;2022-12-15T11:05:53;1.90;99.90
56861;DHT22;42744;51.094;3.490;2022-12-15T11:08:21;2.20;99.90
56861;DHT22;42744;51.094;3.490;2022-12-15T11:10:56;2.30;99.90
56861;DHT22;42744;51.094;3.490;2022-12-15T11:13:41;2.40;99.90
56861;DHT22;42744;51.094;3.490;2022-12-15T11:16:30;2.50;99.90
56861;DHT22;42744;51.094;3.490;2022-12-15T11:19:12;2.60;99.90
56861;DHT22;42744;51.094;3.490;2022-12-15T11:21:50;2.70;99.90
56861;DHT22;42744;51.094;3.490;2022-12-15T11:27:00;2.80;99.90
56861;DHT22;42744;51.094;3.490;2022-12-15T11:32:10;3.00;99.90
56861;DHT22;42744;51.094;3.490;2022-12-15T11:34:41;3.10;99.90
56861;DHT22;42744;51.094;3.490;2022-12-15T11:37:36;3.20;99.90
56861;DHT22;42744;51.094;3.490;2022-12-15T11:43:08;3.30;99.90
56861;DHT22;42744;51.094;3.490;2022-12-15T11:46:02;3.40;99.90
56861;DHT22;42744;51.094;3.490;2022-12-15T11:49:11;3.60;99.90
56861;DHT22;42744;51.094;3.490;2022-12-15T11:52:02;3.60;99.90
56861;DHT22;42744;51.094;3.490;2022-12-15T11:54:37;3.70;99.90
56861;DHT22;42744;51.094;3.490;2022-12-15T12:08:44;3.90;99.90
56861;DHT22;42744;51.094;3.490;2022-12-15T12:11:19;3.90;99.90
56861;DHT22;42744;51.094;3.490;2022-12-15T12:14:06;4.00;99.90
56861;DHT22;42744;51.094;3.490;2022-12-15T12:17:07;4.00;99.90
56861;DHT22;42744;51.094;3.490;2022-12-15T12:19:40;4.10;99.90
56861;DHT22;42744;51.094;3.490;2022-12-15T12:22:21;4.10;99.90
56861;DHT22;42744;51.094;3.490;2022-12-15T12:25:10;4.00;99.90
56861;DHT22;42744;51.094;3.490;2022-12-15T12:27:52;4.00;99.90
56861;DHT22;42744;51.094;3.490;2022-12-15T12:30:25;4.00;99.90
56861;DHT22;42744;51.094;3.490;2022-12-15T12:33:27;4.10;99.90
56861;DHT22;42744;51.094;3.490;2022-12-15T12:35:59;4.30;99.90
56861;DHT22;42744;51.094;3.490;2022-12-15T12:38:35;4.50;99.90
56861;DHT22;42744;51.094;3.490;2022-12-15T12:41:14;4.60;99.90
56861;DHT22;42744;51.094;3.490;2022-12-15T12:43:52;4.60;99.90
56861;DHT22;42744;51.094;3.490;2022-12-15T12:46:33;4.70;99.90
56861;DHT22;42744;51.094;3.490;2022-12-15T12:51:55;4.70;99.90
56861;DHT22;42744;51.094;3.490;2022-12-15T12:57:27;5.00;99.90
56861;DHT22;42744;51.094;3.490;2022-12-15T12:59:55;5.10;99.90
56861;DHT22;42744;51.094;3.490;2022-12-15T13:10:33;5.00;99.90
56861;DHT22;42744;51.094;3.490;2022-12-15T13:13:37;5.00;99.90
56861;DHT22;42744;51.094;3.490;2022-12-15T13:16:21;5.00;99.90
56861;DHT22;42744;51.094;3.490;2022-12-15T13:19:03;4.80;99.90
56861;DHT22;42744;51.094;3.490;2022-12-15T13:26:50;4.30;99.90
56861;DHT22;42744;51.094;3.490;2022-12-15T13:29:20;4.20;99.90
56861;DHT22;42744;51.094;3.490;2022-12-15T13:31:49;4.10;99.90
56861;DHT22;42744;51.094;3.490;2022-12-15T13:34:17;4.00;99.90
56861;DHT22;42744;51.094;3.490;2022-12-15T13:36:51;3.90;99.90
56861;DHT22;42744;51.094;3.490;2022-12-15T13:44:46;4.00;99.90
56861;DHT22;42744;51.094;3.490;2022-12-15T13:50:02;3.90;99.90
56861;DHT22;42744;51.094;3.490;2022-12-15T13:52:35;4.00;99.90
56861;DHT22;42744;51.094;3.490;2022-12-15T13:55:13;3.90;99.90
56861;DHT22;42744;51.094;3.490;2022-12-15T13:57:53;3.80;99.90
56861;DHT22;42744;51.094;3.490;2022-12-15T14:00:20;3.70;99.90
56861;DHT22;42744;51.094;3.490;2022-12-15T14:02:46;3.60;99.90
56861;DHT22;42744;51.094;3.490;2022-12-15T14:05:18;3.60;99.90
56861;DHT22;42744;51.094;3.490;2022-12-15T14:10:23;3.60;99.90
56861;DHT22;42744;51.094;3.490;2022-12-15T14:12:55;3.70;99.90
56861;DHT22;42744;51.094;3.490;2022-12-15T14:15:28;3.60;99.90
56861;DHT22;42744;51.094;3.490;2022-12-15T14:17:57;3.60;99.90
56861;DHT22;42744;51.094;3.490;2022-12-15T14:20:38;3.40;99.90
56861;DHT22;42744;51.094;3.490;2022-12-15T14:23:40;3.30;99.90
56861;DHT22;42744;51.094;3.490;2022-12-15T14:26:09;3.20;99.90
56861;DHT22;42744;51.094;3.490;2022-12-15T14:28:41;3.20;99.90
56861;DHT22;42744;51.094;3.490;2022-12-15T14:31:20;3.10;99.90
56861;DHT22;42744;51.094;3.490;2022-12-15T14:33:52;3.00;99.90
56861;DHT22;42744;51.094;3.490;2022-12-15T14:36:22;2.90;99.90
56861;DHT22;42744;51.094;3.490;2022-12-15T14:38:57;2.80;99.90
56861;DHT22;42744;51.094;3.490;2022-12-15T14:41:27;2.70;99.90
56861;DHT22;42744;51.094;3.490;2022-12-15T14:44:04;2.60;99.90
56861;DHT22;42744;51.094;3.490;2022-12-15T14:46:31;2.60;99.90
56861;DHT22;42744;51.094;3.490;2022-12-15T14:49:01;2.60;99.90
56861;DHT22;42744;51.094;3.490;2022-12-15T14:51:29;2.50;99.90
56861;DHT22;42744;51.094;3.490;2022-12-15T14:53:56;2.50;99.90
56861;DHT22;42744;51.094;3.490;2022-12-15T14:56:27;2.40;99.90
56861;DHT22;42744;51.094;3.490;2022-12-15T14:59:18;2.30;99.90
56861;DHT22;42744;51.094;3.490;2022-12-15T15:01:56;2.20;99.90
56861;DHT22;42744;51.094;3.490;2022-12-15T15:04:24;2.10;99.90
56861;DHT22;42744;51.094;3.490;2022-12-15T15:06:56;2.00;99.90
56861;DHT22;42744;51.094;3.490;2022-12-15T15:09:38;1.90;99.90
56861;DHT22;42744;51.094;3.490;2022-12-15T15:12:16;1.80;99.90
56861;DHT22;42744;51.094;3.490;2022-12-15T15:15:01;1.70;99.90
56861;DHT22;42744;51.094;3.490;2022-12-15T15:17:35;1.60;99.90
56861;DHT22;42744;51.094;3.490;2022-12-15T15:20:15;1.50;99.90
56861;DHT22;42744;51.094;3.490;2022-12-15T15:22:45;1.40;99.90
56861;DHT22;42744;51.094;3.490;2022-12-15T15:30:58;1.10;99.90
56861;DHT22;42744;51.094;3.490;2022-12-15T15:33:30;1.00;99.90
56861;DHT22;42744;51.094;3.490;2022-12-15T15:35:58;0.80;99.90
56861;DHT22;42744;51.094;3.490;2022-12-15T15:40:57;0.60;99.90
56861;DHT22;42744;51.094;3.490;2022-12-15T15:43:25;0.60;99.90
56861;DHT22;42744;51.094;3.490;2022-12-15T15:46:00;0.60;99.90
56861;DHT22;42744;51.094;3.490;2022-12-15T15:48:32;0.50;99.90
56861;DHT22;42744;51.094;3.490;2022-12-15T15:50:59;0.50;99.90
56861;DHT22;42744;51.094;3.490;2022-12-15T15:53:26;0.40;99.90
56861;DHT22;42744;51.094;3.490;2022-12-15T15:55:55;0.30;99.90
56861;DHT22;42744;51.094;3.490;2022-12-15T15:58:21;0.20;99.90
56861;DHT22;42744;51.094;3.490;2022-12-15T16:00:47;0.20;99.90
56861;DHT22;42744;51.094;3.490;2022-12-15T16:03:14;0.10;99.90
56861;DHT22;42744;51.094;3.490;2022-12-15T16:05:41;0.10;99.90
56861;DHT22;42744;51.094;3.490;2022-12-15T16:08:13;0.00;99.90
56861;DHT22;42744;51.094;3.490;2022-12-15T16:10:42;-0.10;99.90
56861;DHT22;42744;51.094;3.490;2022-12-15T16:13:10;-0.20;99.90
56861;DHT22;42744;51.094;3.490;2022-12-15T16:15:36;-0.20;99.90
56861;DHT22;42744;51.094;3.490;2022-12-15T16:18:03;-0.30;99.90
56861;DHT22;42744;51.094;3.490;2022-12-15T16:20:29;-0.30;99.90
56861;DHT22;42744;51.094;3.490;2022-12-15T16:23:01;-0.30;99.90
56861;DHT22;42744;51.094;3.490;2022-12-15T16:25:32;-0.40;99.90
56861;DHT22;42744;51.094;3.490;2022-12-15T16:27:59;-0.40;99.90
56861;DHT22;42744;51.094;3.490;2022-12-15T16:30:27;-0.40;99.90
56861;DHT22;42744;51.094;3.490;2022-12-15T16:32:54;-0.50;99.90
56861;DHT22;42744;51.094;3.490;2022-12-15T16:35:23;-0.60;99.90
56861;DHT22;42744;51.094;3.490;2022-12-15T16:37:49;-0.70;99.90
56861;DHT22;42744;51.094;3.490;2022-12-15T16:40:18;-0.70;99.90
56861;DHT22;42744;51.094;3.490;2022-12-15T16:42:50;-0.70;99.90
56861;DHT22;42744;51.094;3.490;2022-12-15T16:45:18;-0.80;99.90
56861;DHT22;42744;51.094;3.490;2022-12-15T16:47:45;-0.80;99.90
56861;DHT22;42744;51.094;3.490;2022-12-15T16:50:12;-0.90;99.90
56861;DHT22;42744;51.094;3.490;2022-12-15T16:52:41;-0.90;99.90
56861;DHT22;42744;51.094;3.490;2022-12-15T16:55:25;-0.90;99.90
56861;DHT22;42744;51.094;3.490;2022-12-15T16:57:58;-1.00;99.90
56861;DHT22;42744;51.094;3.490;2022-12-15T17:00:27;-1.00;99.90
56861;DHT22;42744;51.094;3.490;2022-12-15T17:02:54;-1.10;99.90
56861;DHT22;42744;51.094;3.490;2022-12-15T17:05:21;-1.10;99.90
56861;DHT22;42744;51.094;3.490;2022-12-15T17:07:53;-1.20;99.90
56861;DHT22;42744;51.094;3.490;2022-12-15T17:10:25;-1.20;99.90
56861;DHT22;42744;51.094;3.490;2022-12-15T17:13:02;-1.30;99.90
56861;DHT22;42744;51.094;3.490;2022-12-15T17:15:29;-1.30;99.90
56861;DHT22;42744;51.094;3.490;2022-12-15T17:17:55;-1.30;99.90
56861;DHT22;42744;51.094;3.490;2022-12-15T17:20:24;-1.40;99.90
56861;DHT22;42744;51.094;3.490;2022-12-15T17:22:54;-1.40;99.90
56861;DHT22;42744;51.094;3.490;2022-12-15T17:25:23;-1.40;99.90
56861;DHT22;42744;51.094;3.490;2022-12-15T17:27:52;-1.40;99.90
56861;DHT22;42744;51.094;3.490;2022-12-15T17:30:21;-1.50;99.90
56861;DHT22;42744;51.094;3.490;2022-12-15T17:32:47;-1.50;99.90
56861;DHT22;42744;51.094;3.490;2022-12-15T17:35:14;-1.60;99.90
56861;DHT22;42744;51.094;3.490;2022-12-15T17:37:41;-1.60;99.90
56861;DHT22;42744;51.094;3.490;2022-12-15T17:40:26;-1.60;99.90
56861;DHT22;42744;51.094;3.490;2022-12-15T17:42:52;-1.70;99.90
56861;DHT22;42744;51.094;3.490;2022-12-15T17:45:20;-1.70;99.90
56861;DHT22;42744;51.094;3.490;2022-12-15T17:47:49;-1.80;99.90
56861;DHT22;42744;51.094;3.490;2022-12-15T17:50:16;-1.80;99.90
56861;DHT22;42744;51.094;3.490;2022-12-15T17:52:44;-1.90;99.90
56861;DHT22;42744;51.094;3.490;2022-12-15T17:55:18;-1.90;99.90
56861;DHT22;42744;51.094;3.490;2022-12-15T17:57:45;-1.90;99.90
56861;DHT22;42744;51.094;3.490;2022-12-15T18:00:20;-1.90;99.90
56861;DHT22;42744;51.094;3.490;2022-12-15T18:02:47;-2.00;99.90